M74 weather

Bald Knob Municipal Airport
Bald Knob, Arkansas, United States

Public forecast

Using degrees Fahrenheit for public forecast. Weather courtesy of forecast.io.

Closest aviation weather report (METAR) to Bald Knob Municipal Airport

Closest report is Searcy Municipal Airport, 10.3 nm (19.1 km) WSW. Retrieved 2019/10/20 07:56 UTC (25 minutes ago):

KSRC 200756Z AUTO 02004KT 10SM FEW035 OVC065 17/13 A2981 RMK AO2 SLP095 T01670133

Closest aviation forecast (TAF) to Bald Knob Municipal Airport

Closest forecast is Little Rock Air Force Base, 37.1 nm (68.7 km) SW. Retrieved 2019/10/20 07:21 UTC (60 minutes ago):

TAF TAF KLRF 200700Z 2007/2113 VRB06KT 9999 SCT030 BKN060 QNH2979INS BECMG 2016/2017 14012KT 9999 BKN050 QNH2975INS BECMG 2022/2023 VRB06KT 9999 OVC020 QNH2976INS BECMG 2101/2102 18009KT 9999 OVC010 QNH2973INS BECMG 2105/2106 18009KT 9999 OVC005 WS020/20040KT QNH2962INS TEMPO 2109/2113 VRB20G30KT 4800 TSRA BKN010CB OVC020 TX27/2020Z TN15/2012Z